Pilar, New Mexico
Current Conditions -  °F | °C
As of 12:35 AM on Sunday 23 Nov 2014 (Local Time) from KSKX Reporting Station
Overcast Overcast  
Wind Chill: 32°   Ceiling: 6000
Heat Index: 36°   Visibility: 10mi
Dew Point: 23°   Wind: 5mph
Humidity: 60%   Direction: 230°SW
Pressure: 29.8"   Gusts: NA
Location:  36.4227°N, 105.509°W
Report Text: KSKX 230735Z AUTO 23004KT 10SM BKN060 OVC120 02/M05 A2980 RMK AO1
Loading
Personal Weather Stations






























Interactive Weather Map New forecast layout! Learn more

10-Day Weather Forecast

Advertisements
Track Severe Weather on mobile